createdAt,value
2024-04-06T00:01:21.491Z,15
2024-04-06T00:11:21.495Z,13
2024-04-06T00:16:21.482Z,18
2024-04-06T00:21:21.498Z,21
2024-04-06T00:26:21.500Z,19
2024-04-06T00:31:21.501Z,14
2024-04-06T00:36:21.503Z,16
2024-04-06T00:41:21.491Z,15
2024-04-06T00:46:21.509Z,17
2024-04-06T00:51:21.494Z,15
2024-04-06T00:56:21.510Z,21
2024-04-06T01:01:21.511Z,21
2024-04-06T01:06:21.513Z,17
2024-04-06T01:11:21.515Z,19
2024-04-06T01:16:21.502Z,19
2024-04-06T01:21:21.518Z,17
2024-04-06T01:26:21.505Z,16
2024-04-06T01:31:21.521Z,16
2024-04-06T01:36:21.523Z,14
2024-04-06T01:41:21.510Z,17
2024-04-06T01:46:21.526Z,16
2024-04-06T01:51:21.513Z,16
2024-04-06T01:56:21.529Z,19
2024-04-06T02:01:21.530Z,14
2024-04-06T02:06:21.532Z,19
2024-04-06T02:11:21.534Z,18
2024-04-06T02:16:21.521Z,16
2024-04-06T02:21:21.579Z,15
2024-04-06T02:26:21.524Z,18
2024-04-06T02:31:21.604Z,18
2024-04-06T02:36:21.541Z,14
2024-04-06T02:41:21.543Z,17
2024-04-06T02:46:21.545Z,20
2024-04-06T02:51:21.532Z,17
2024-04-06T02:56:21.547Z,18
2024-04-06T03:01:21.534Z,17
2024-04-06T03:06:21.550Z,16
2024-04-06T03:11:21.551Z,17
2024-04-06T03:16:21.539Z,16
2024-04-06T03:21:21.555Z,15
2024-04-06T03:26:21.542Z,20
2024-04-06T03:31:21.557Z,16
2024-04-06T03:36:21.559Z,15
2024-04-06T03:41:21.560Z,15
2024-04-06T03:46:21.562Z,20
2024-04-06T03:51:21.549Z,17
2024-04-06T03:56:21.565Z,14
2024-04-06T04:01:21.552Z,18
2024-04-06T04:06:21.568Z,20
2024-04-06T04:11:21.569Z,17
2024-04-06T04:16:21.619Z,19
2024-04-06T04:21:21.573Z,20
2024-04-06T04:26:21.559Z,18
2024-04-06T04:31:21.575Z,19
2024-04-06T04:36:21.562Z,22
2024-04-06T04:41:21.578Z,19
2024-04-06T04:46:21.579Z,19
2024-04-06T04:51:21.566Z,17
2024-04-06T04:56:21.583Z,15
2024-04-06T05:01:21.569Z,15
2024-04-06T05:06:21.585Z,18
2024-04-06T05:11:21.586Z,21
2024-04-06T05:16:21.588Z,17
2024-04-06T05:21:21.589Z,18
2024-04-06T05:26:21.576Z,22
2024-04-06T05:31:21.592Z,19
2024-04-06T05:36:21.579Z,19
2024-04-06T05:41:21.594Z,24
2024-04-06T05:46:21.596Z,15
2024-04-06T05:51:21.583Z,16
2024-04-06T05:56:21.599Z,16
2024-04-06T06:01:21.586Z,19
2024-04-06T06:06:21.601Z,16
2024-04-06T06:11:21.604Z,17
2024-04-06T06:16:21.604Z,15
2024-04-06T06:21:21.606Z,20
2024-04-06T06:26:21.593Z,23
2024-04-06T06:31:21.651Z,19
2024-04-06T06:36:21.596Z,16
2024-04-06T06:41:21.612Z,19
2024-04-06T06:46:21.613Z,19
2024-04-06T06:51:21.615Z,18
2024-04-06T06:56:21.617Z,16
2024-04-06T07:01:21.604Z,25
2024-04-06T07:06:21.620Z,24
2024-04-06T07:11:21.608Z,22
2024-04-06T07:16:21.623Z,24
2024-04-06T07:21:21.625Z,23
2024-04-06T07:26:21.613Z,25
2024-04-06T07:31:21.630Z,20
2024-04-06T07:36:21.617Z,23
2024-04-06T07:41:21.633Z,26
2024-04-06T07:46:21.635Z,27
2024-04-06T07:51:21.638Z,21
2024-04-06T07:56:21.640Z,21
2024-04-06T08:01:21.628Z,19
2024-04-06T08:06:21.688Z,17
2024-04-06T08:11:21.634Z,12
2024-04-06T08:16:21.651Z,15
2024-04-06T08:21:21.654Z,11
2024-04-06T08:26:21.643Z,13
2024-04-06T08:31:21.661Z,12
2024-04-06T08:36:21.663Z,17
2024-04-06T08:41:21.666Z,10
2024-04-06T08:46:21.655Z,8
2024-04-06T08:51:21.672Z,10
2024-04-06T08:56:21.675Z,9
2024-04-06T09:01:21.664Z,11
2024-04-06T09:06:21.681Z,13
2024-04-06T09:11:21.669Z,17
2024-04-06T09:16:21.687Z,16
2024-04-06T09:21:21.690Z,17
2024-04-06T09:26:21.692Z,21
2024-04-06T09:31:21.696Z,16
2024-04-06T09:36:21.684Z,17
2024-04-06T09:41:21.701Z,19
2024-04-06T09:46:21.690Z,12
2024-04-06T09:51:21.707Z,16
2024-04-06T09:56:21.710Z,13
2024-04-06T10:01:21.699Z,15
2024-04-06T10:06:21.716Z,11
2024-04-06T10:11:21.705Z,10
2024-04-06T10:16:21.722Z,9
2024-04-06T10:21:21.710Z,9
2024-04-06T10:31:21.731Z,7
2024-04-06T10:36:21.719Z,15
2024-04-06T10:41:21.802Z,12
2024-04-06T10:46:21.725Z,13
2024-04-06T10:51:21.742Z,17
2024-04-06T10:56:21.745Z,9
2024-04-06T11:01:21.748Z,9
2024-04-06T11:06:21.752Z,16
2024-04-06T11:11:21.740Z,12
2024-04-06T11:16:21.757Z,12
2024-04-06T11:21:21.746Z,15
2024-04-06T11:26:21.763Z,19
2024-04-06T11:31:21.766Z,19
2024-04-06T11:36:21.755Z,14
2024-04-06T11:41:21.773Z,18
2024-04-06T11:46:21.761Z,18
2024-04-06T11:51:21.778Z,19
2024-04-06T11:56:21.781Z,18
2024-04-06T12:01:21.784Z,11
2024-04-06T12:06:21.787Z,19
2024-04-06T12:11:21.775Z,28
2024-04-06T12:16:21.858Z,20
2024-04-06T12:21:21.781Z,18
2024-04-06T12:26:21.798Z,16
2024-04-06T12:31:21.801Z,20
2024-04-06T12:36:21.853Z,16
2024-04-06T12:41:21.807Z,24
2024-04-06T12:46:21.795Z,16
2024-04-06T12:51:21.813Z,18
2024-04-06T12:56:21.801Z,20
2024-04-06T13:01:21.819Z,13
2024-04-06T13:06:21.821Z,19
2024-04-06T13:11:21.810Z,14
2024-04-06T13:16:21.828Z,13
2024-04-06T13:21:21.816Z,10
2024-04-06T13:26:21.833Z,17
2024-04-06T13:31:21.836Z,10
2024-04-06T13:36:21.839Z,11
2024-04-06T13:41:21.843Z,14
2024-04-06T13:46:21.831Z,13
2024-04-06T13:51:21.848Z,9
2024-04-06T13:56:21.836Z,8
2024-04-06T14:01:21.854Z,15
2024-04-06T14:06:21.857Z,8
2024-04-06T14:11:21.884Z,7
2024-04-06T14:16:21.863Z,12
2024-04-06T14:21:21.851Z,16
2024-04-06T14:26:21.868Z,15
2024-04-06T14:31:21.872Z,11
2024-04-06T14:36:21.875Z,11
2024-04-06T14:41:21.902Z,10
2024-04-06T14:46:21.867Z,10
2024-04-06T14:51:21.884Z,8
2024-04-06T14:56:21.873Z,10
2024-04-06T15:01:21.890Z,14
2024-04-06T15:06:21.893Z,17
2024-04-06T15:11:21.896Z,15
2024-04-06T15:16:21.899Z,11
2024-04-06T15:21:21.887Z,18
2024-04-06T15:26:21.904Z,18
2024-04-06T15:31:21.893Z,16
2024-04-06T15:36:21.911Z,16
2024-04-06T15:41:21.913Z,23
2024-04-06T15:46:21.902Z,21
2024-04-06T15:51:21.919Z,16
2024-04-06T15:56:21.908Z,15
2024-04-06T16:01:21.925Z,24
2024-04-06T16:06:21.927Z,19
2024-04-06T16:11:21.931Z,23
2024-04-06T16:16:21.934Z,15
2024-04-06T16:21:21.922Z,20
2024-04-06T16:26:21.939Z,19
2024-04-06T16:31:21.928Z,24
2024-04-06T16:36:21.945Z,19
2024-04-06T16:41:21.948Z,17
2024-04-06T16:46:21.936Z,14
2024-04-06T16:51:21.954Z,22
2024-04-06T16:56:21.942Z,14
2024-04-06T17:01:21.959Z,14
2024-04-06T17:06:21.948Z,16
2024-04-06T17:11:21.964Z,21
2024-04-06T17:16:21.967Z,22
2024-04-06T17:21:21.955Z,19
2024-04-06T17:26:22.023Z,20
2024-04-06T17:31:21.961Z,17
2024-04-06T17:36:21.978Z,18
2024-04-06T17:41:21.980Z,22
2024-04-06T17:46:21.983Z,18
2024-04-06T17:51:21.986Z,19
2024-04-06T17:56:21.973Z,27
2024-04-06T18:01:21.990Z,36
2024-04-06T18:06:21.978Z,39
2024-04-06T18:11:21.995Z,27
2024-04-06T18:16:21.997Z,23
2024-04-06T18:21:21.985Z,25
2024-04-06T18:26:22.002Z,30
2024-04-06T18:31:21.990Z,30
2024-04-06T18:36:22.006Z,35
2024-04-06T18:41:22.008Z,29
2024-04-06T18:46:22.011Z,36
2024-04-06T18:51:22.014Z,26
2024-04-06T18:56:22.001Z,35
2024-04-06T19:01:22.060Z,23
2024-04-06T19:06:22.005Z,31
2024-04-06T19:11:22.022Z,29
2024-04-06T19:16:22.024Z,32
2024-04-06T19:21:22.026Z,24
2024-04-06T19:26:22.029Z,27
2024-04-06T19:31:22.016Z,26
2024-04-06T19:36:22.032Z,21
2024-04-06T19:41:22.020Z,19
2024-04-06T19:46:22.036Z,20
2024-04-06T19:51:22.038Z,20
2024-04-06T19:56:22.026Z,18
2024-04-06T20:01:22.043Z,20
2024-04-06T20:06:22.030Z,21
2024-04-06T20:11:22.046Z,23
2024-04-06T20:16:22.048Z,18
2024-04-06T20:21:22.050Z,23
2024-04-06T20:26:22.053Z,19
2024-04-06T20:31:22.040Z,23
2024-04-06T20:36:22.056Z,21
2024-04-06T20:41:22.044Z,23
2024-04-06T20:46:22.060Z,16
2024-04-06T20:51:22.062Z,21
2024-04-06T20:56:22.088Z,15
2024-04-06T21:01:22.066Z,18
2024-04-06T21:06:22.053Z,18
2024-04-06T21:11:22.069Z,18
2024-04-06T21:16:22.057Z,16
2024-04-06T21:21:22.073Z,16
2024-04-06T21:26:22.083Z,17
2024-04-06T21:31:22.062Z,21
2024-04-06T21:36:22.079Z,22
2024-04-06T21:41:22.066Z,20
2024-04-06T21:46:22.082Z,18
2024-04-06T21:51:22.083Z,18
2024-04-06T21:56:22.085Z,21
2024-04-06T22:01:22.087Z,18
2024-04-06T22:06:22.074Z,20
2024-04-06T22:11:22.090Z,21
2024-04-06T22:16:22.078Z,16
2024-04-06T22:21:22.093Z,14
2024-04-06T22:26:22.095Z,19
2024-04-06T22:31:22.083Z,19
2024-04-06T22:36:22.099Z,21
2024-04-06T22:41:22.086Z,21
2024-04-06T22:46:22.102Z,23
2024-04-06T22:51:22.104Z,21
2024-04-06T22:56:22.105Z,18
2024-04-06T23:01:22.108Z,21
2024-04-06T23:06:22.095Z,18
2024-04-06T23:11:22.152Z,19
2024-04-06T23:16:22.098Z,22
2024-04-06T23:21:22.114Z,19
2024-04-06T23:26:22.115Z,19
2024-04-06T23:31:22.141Z,18
2024-04-06T23:36:22.119Z,16
2024-04-06T23:41:22.106Z,19
2024-04-06T23:46:22.122Z,20
2024-04-06T23:51:22.128Z,17
2024-04-06T23:56:22.125Z,14
